sensor_id;sensor_type;location;lat;lon;timestamp;temperature;humidity
22974;DHT22;11653;50.848;4.584;2022-11-20T00:00:52;6.00;99.90
22974;DHT22;11653;50.848;4.584;2022-11-20T00:03:18;6.10;99.90
22974;DHT22;11653;50.848;4.584;2022-11-20T00:05:44;6.20;99.90
22974;DHT22;11653;50.848;4.584;2022-11-20T00:08:09;6.20;99.90
22974;DHT22;11653;50.848;4.584;2022-11-20T00:10:39;6.20;99.90
22974;DHT22;11653;50.848;4.584;2022-11-20T00:13:05;6.20;99.90
22974;DHT22;11653;50.848;4.584;2022-11-20T00:15:31;6.20;99.90
22974;DHT22;11653;50.848;4.584;2022-11-20T00:17:57;6.30;99.90
22974;DHT22;11653;50.848;4.584;2022-11-20T00:20:22;6.30;99.90
22974;DHT22;11653;50.848;4.584;2022-11-20T00:22:49;6.30;99.90
22974;DHT22;11653;50.848;4.584;2022-11-20T00:25:15;6.30;99.90
22974;DHT22;11653;50.848;4.584;2022-11-20T00:27:41;6.30;99.90
22974;DHT22;11653;50.848;4.584;2022-11-20T00:30:07;6.20;99.90
22974;DHT22;11653;50.848;4.584;2022-11-20T00:32:33;6.30;99.90
22974;DHT22;11653;50.848;4.584;2022-11-20T00:34:59;6.30;99.90
22974;DHT22;11653;50.848;4.584;2022-11-20T00:37:25;6.30;99.90
22974;DHT22;11653;50.848;4.584;2022-11-20T00:39:51;6.20;99.90
22974;DHT22;11653;50.848;4.584;2022-11-20T00:42:16;6.20;99.90
22974;DHT22;11653;50.848;4.584;2022-11-20T00:44:42;6.00;99.90
22974;DHT22;11653;50.848;4.584;2022-11-20T00:47:07;6.00;99.90
22974;DHT22;11653;50.848;4.584;2022-11-20T00:49:33;6.00;99.90
22974;DHT22;11653;50.848;4.584;2022-11-20T00:51:59;6.00;99.90
22974;DHT22;11653;50.848;4.584;2022-11-20T00:54:24;6.00;99.90
22974;DHT22;11653;50.848;4.584;2022-11-20T00:56:52;6.00;99.90
22974;DHT22;11653;50.848;4.584;2022-11-20T00:59:18;6.10;99.90
22974;DHT22;11653;50.848;4.584;2022-11-20T01:01:43;6.10;99.90
22974;DHT22;11653;50.848;4.584;2022-11-20T01:04:09;6.20;99.90
22974;DHT22;11653;50.848;4.584;2022-11-20T01:06:36;6.20;99.90
22974;DHT22;11653;50.848;4.584;2022-11-20T01:09:07;6.20;99.90
22974;DHT22;11653;50.848;4.584;2022-11-20T01:11:35;6.10;99.90
22974;DHT22;11653;50.848;4.584;2022-11-20T01:14:03;6.10;99.90
22974;DHT22;11653;50.848;4.584;2022-11-20T01:16:31;6.10;99.90
22974;DHT22;11653;50.848;4.584;2022-11-20T01:18:59;6.20;99.90
22974;DHT22;11653;50.848;4.584;2022-11-20T01:21:28;6.10;99.90
22974;DHT22;11653;50.848;4.584;2022-11-20T01:23:55;6.10;99.90
22974;DHT22;11653;50.848;4.584;2022-11-20T01:26:41;6.20;99.90
22974;DHT22;11653;50.848;4.584;2022-11-20T01:29:19;6.40;99.90
22974;DHT22;11653;50.848;4.584;2022-11-20T01:31:45;6.30;99.90
22974;DHT22;11653;50.848;4.584;2022-11-20T01:34:16;6.20;99.90
22974;DHT22;11653;50.848;4.584;2022-11-20T01:36:43;6.10;99.90
22974;DHT22;11653;50.848;4.584;2022-11-20T01:39:15;6.00;99.90
22974;DHT22;11653;50.848;4.584;2022-11-20T01:41:42;6.00;99.90
22974;DHT22;11653;50.848;4.584;2022-11-20T01:44:47;6.10;99.90
22974;DHT22;11653;50.848;4.584;2022-11-20T01:47:17;6.20;99.90
22974;DHT22;11653;50.848;4.584;2022-11-20T01:50:03;6.20;99.90
22974;DHT22;11653;50.848;4.584;2022-11-20T01:52:39;6.10;99.90
22974;DHT22;11653;50.848;4.584;2022-11-20T01:55:09;6.10;99.90
22974;DHT22;11653;50.848;4.584;2022-11-20T01:57:39;6.00;99.90
22974;DHT22;11653;50.848;4.584;2022-11-20T02:00:13;6.20;99.90
22974;DHT22;11653;50.848;4.584;2022-11-20T02:02:42;6.20;99.90
22974;DHT22;11653;50.848;4.584;2022-11-20T02:05:28;6.10;99.90
22974;DHT22;11653;50.848;4.584;2022-11-20T02:07:58;6.10;99.90
22974;DHT22;11653;50.848;4.584;2022-11-20T02:10:24;6.00;99.90
22974;DHT22;11653;50.848;4.584;2022-11-20T02:12:51;6.00;99.90
22974;DHT22;11653;50.848;4.584;2022-11-20T02:15:35;6.10;99.90
22974;DHT22;11653;50.848;4.584;2022-11-20T02:18:01;6.20;99.90
22974;DHT22;11653;50.848;4.584;2022-11-20T02:20:27;6.20;99.90
22974;DHT22;11653;50.848;4.584;2022-11-20T02:22:57;6.10;99.90
22974;DHT22;11653;50.848;4.584;2022-11-20T02:25:26;6.20;99.90
22974;DHT22;11653;50.848;4.584;2022-11-20T02:27:53;6.20;99.90
22974;DHT22;11653;50.848;4.584;2022-11-20T02:30:19;6.20;99.90
22974;DHT22;11653;50.848;4.584;2022-11-20T02:32:45;6.20;99.90
22974;DHT22;11653;50.848;4.584;2022-11-20T02:37:52;6.20;99.90
22974;DHT22;11653;50.848;4.584;2022-11-20T02:40:19;6.10;99.90
22974;DHT22;11653;50.848;4.584;2022-11-20T02:42:45;6.10;99.90
22974;DHT22;11653;50.848;4.584;2022-11-20T02:45:10;6.10;99.90
22974;DHT22;11653;50.848;4.584;2022-11-20T02:47:36;6.00;99.90
22974;DHT22;11653;50.848;4.584;2022-11-20T02:50:02;6.00;99.90
22974;DHT22;11653;50.848;4.584;2022-11-20T02:52:28;6.00;99.90
22974;DHT22;11653;50.848;4.584;2022-11-20T02:54:54;5.80;99.90
22974;DHT22;11653;50.848;4.584;2022-11-20T02:57:20;5.80;99.90
22974;DHT22;11653;50.848;4.584;2022-11-20T02:59:45;5.80;99.90
22974;DHT22;11653;50.848;4.584;2022-11-20T03:02:11;5.90;99.90
22974;DHT22;11653;50.848;4.584;2022-11-20T03:04:37;5.90;99.90
22974;DHT22;11653;50.848;4.584;2022-11-20T03:07:03;5.80;99.90
22974;DHT22;11653;50.848;4.584;2022-11-20T03:09:29;5.70;99.90
22974;DHT22;11653;50.848;4.584;2022-11-20T03:11:55;5.80;99.90
22974;DHT22;11653;50.848;4.584;2022-11-20T03:14:20;5.70;99.90
22974;DHT22;11653;50.848;4.584;2022-11-20T03:16:46;5.70;99.90
22974;DHT22;11653;50.848;4.584;2022-11-20T03:19:12;5.70;99.90
22974;DHT22;11653;50.848;4.584;2022-11-20T03:21:38;5.80;99.90
22974;DHT22;11653;50.848;4.584;2022-11-20T03:24:03;5.80;99.90
22974;DHT22;11653;50.848;4.584;2022-11-20T03:26:29;5.90;99.90
22974;DHT22;11653;50.848;4.584;2022-11-20T03:29:00;5.80;99.90
22974;DHT22;11653;50.848;4.584;2022-11-20T03:31:29;5.90;99.90
22974;DHT22;11653;50.848;4.584;2022-11-20T03:33:56;5.80;99.90
22974;DHT22;11653;50.848;4.584;2022-11-20T03:36:23;5.80;99.90
22974;DHT22;11653;50.848;4.584;2022-11-20T03:38:49;5.90;99.90
22974;DHT22;11653;50.848;4.584;2022-11-20T03:41:20;5.90;99.90
22974;DHT22;11653;50.848;4.584;2022-11-20T03:43:51;6.00;99.90
22974;DHT22;11653;50.848;4.584;2022-11-20T03:46:17;6.00;99.90
22974;DHT22;11653;50.848;4.584;2022-11-20T03:48:43;6.00;99.90
22974;DHT22;11653;50.848;4.584;2022-11-20T03:51:13;6.00;99.90
22974;DHT22;11653;50.848;4.584;2022-11-20T03:53:41;5.90;99.90
22974;DHT22;11653;50.848;4.584;2022-11-20T03:56:08;6.00;99.90
22974;DHT22;11653;50.848;4.584;2022-11-20T03:58:35;6.00;99.90
22974;DHT22;11653;50.848;4.584;2022-11-20T04:01:15;6.00;99.90
22974;DHT22;11653;50.848;4.584;2022-11-20T04:03:42;6.00;99.90
22974;DHT22;11653;50.848;4.584;2022-11-20T04:06:37;6.00;99.90
22974;DHT22;11653;50.848;4.584;2022-11-20T04:09:03;6.00;99.90
22974;DHT22;11653;50.848;4.584;2022-11-20T04:11:36;6.10;99.90
22974;DHT22;11653;50.848;4.584;2022-11-20T04:14:04;6.10;99.90
22974;DHT22;11653;50.848;4.584;2022-11-20T04:16:34;6.20;99.90
22974;DHT22;11653;50.848;4.584;2022-11-20T04:19:02;6.20;99.90
22974;DHT22;11653;50.848;4.584;2022-11-20T04:21:28;6.30;99.90
22974;DHT22;11653;50.848;4.584;2022-11-20T04:23:54;6.40;99.90
22974;DHT22;11653;50.848;4.584;2022-11-20T04:26:22;6.40;99.90
22974;DHT22;11653;50.848;4.584;2022-11-20T04:28:48;6.40;99.90
22974;DHT22;11653;50.848;4.584;2022-11-20T04:31:16;6.40;99.90
22974;DHT22;11653;50.848;4.584;2022-11-20T04:33:43;6.40;99.90
22974;DHT22;11653;50.848;4.584;2022-11-20T04:36:17;6.50;99.90
22974;DHT22;11653;50.848;4.584;2022-11-20T04:38:43;6.50;99.90
22974;DHT22;11653;50.848;4.584;2022-11-20T04:41:17;6.50;99.90
22974;DHT22;11653;50.848;4.584;2022-11-20T04:43:50;6.50;99.90
22974;DHT22;11653;50.848;4.584;2022-11-20T04:46:17;6.50;99.90
22974;DHT22;11653;50.848;4.584;2022-11-20T04:48:43;6.50;99.90
22974;DHT22;11653;50.848;4.584;2022-11-20T04:51:09;6.50;99.90
22974;DHT22;11653;50.848;4.584;2022-11-20T04:53:35;6.50;99.90
22974;DHT22;11653;50.848;4.584;2022-11-20T04:56:03;6.50;99.90
22974;DHT22;11653;50.848;4.584;2022-11-20T04:58:29;6.50;99.90
22974;DHT22;11653;50.848;4.584;2022-11-20T05:01:03;6.50;99.90
22974;DHT22;11653;50.848;4.584;2022-11-20T05:03:29;6.60;99.90
22974;DHT22;11653;50.848;4.584;2022-11-20T05:05:54;6.60;99.90
22974;DHT22;11653;50.848;4.584;2022-11-20T05:08:20;6.60;99.90
22974;DHT22;11653;50.848;4.584;2022-11-20T05:10:47;6.60;99.90
22974;DHT22;11653;50.848;4.584;2022-11-20T05:13:12;6.60;99.90
22974;DHT22;11653;50.848;4.584;2022-11-20T05:15:38;6.60;99.90
22974;DHT22;11653;50.848;4.584;2022-11-20T05:18:04;6.60;99.90
22974;DHT22;11653;50.848;4.584;2022-11-20T05:20:29;6.60;99.90
22974;DHT22;11653;50.848;4.584;2022-11-20T05:22:58;6.60;99.90
22974;DHT22;11653;50.848;4.584;2022-11-20T05:25:24;6.70;99.90
22974;DHT22;11653;50.848;4.584;2022-11-20T05:27:49;6.60;99.90
22974;DHT22;11653;50.848;4.584;2022-11-20T05:30:15;6.80;99.90
22974;DHT22;11653;50.848;4.584;2022-11-20T05:32:41;6.80;99.90
22974;DHT22;11653;50.848;4.584;2022-11-20T05:35:07;6.80;99.90
22974;DHT22;11653;50.848;4.584;2022-11-20T05:37:32;6.70;99.90
22974;DHT22;11653;50.848;4.584;2022-11-20T05:39:58;6.70;99.90
22974;DHT22;11653;50.848;4.584;2022-11-20T05:42:24;6.80;99.90
22974;DHT22;11653;50.848;4.584;2022-11-20T05:44:56;6.80;99.90
22974;DHT22;11653;50.848;4.584;2022-11-20T05:47:22;6.80;99.90
22974;DHT22;11653;50.848;4.584;2022-11-20T05:49:47;6.80;99.90
22974;DHT22;11653;50.848;4.584;2022-11-20T05:52:13;6.80;99.90
22974;DHT22;11653;50.848;4.584;2022-11-20T05:54:39;6.90;99.90
22974;DHT22;11653;50.848;4.584;2022-11-20T05:57:04;6.90;99.90
22974;DHT22;11653;50.848;4.584;2022-11-20T05:59:30;6.90;99.90
22974;DHT22;11653;50.848;4.584;2022-11-20T06:01:56;6.90;99.90
22974;DHT22;11653;50.848;4.584;2022-11-20T06:04:21;6.90;99.90
22974;DHT22;11653;50.848;4.584;2022-11-20T06:06:47;6.90;99.90
22974;DHT22;11653;50.848;4.584;2022-11-20T06:09:13;7.00;99.90
22974;DHT22;11653;50.848;4.584;2022-11-20T06:11:38;6.90;99.90
22974;DHT22;11653;50.848;4.584;2022-11-20T06:14:04;6.90;99.90
22974;DHT22;11653;50.848;4.584;2022-11-20T06:16:30;6.90;99.90
22974;DHT22;11653;50.848;4.584;2022-11-20T06:18:55;6.80;99.90
22974;DHT22;11653;50.848;4.584;2022-11-20T06:21:22;6.70;99.90
22974;DHT22;11653;50.848;4.584;2022-11-20T06:23:48;6.70;99.90
22974;DHT22;11653;50.848;4.584;2022-11-20T06:26:22;6.70;99.90
22974;DHT22;11653;50.848;4.584;2022-11-20T06:28:49;6.60;99.90
22974;DHT22;11653;50.848;4.584;2022-11-20T06:31:17;6.60;99.90
22974;DHT22;11653;50.848;4.584;2022-11-20T06:33:43;6.60;99.90
22974;DHT22;11653;50.848;4.584;2022-11-20T06:36:11;6.70;99.90
22974;DHT22;11653;50.848;4.584;2022-11-20T06:38:37;6.80;99.90
22974;DHT22;11653;50.848;4.584;2022-11-20T06:41:10;6.70;99.90
22974;DHT22;11653;50.848;4.584;2022-11-20T06:43:35;6.70;99.90
22974;DHT22;11653;50.848;4.584;2022-11-20T06:46:01;6.70;99.90
22974;DHT22;11653;50.848;4.584;2022-11-20T06:48:28;6.80;99.90
22974;DHT22;11653;50.848;4.584;2022-11-20T06:50:54;6.80;99.90
22974;DHT22;11653;50.848;4.584;2022-11-20T06:53:20;6.70;99.90
22974;DHT22;11653;50.848;4.584;2022-11-20T06:55:47;6.60;99.90
22974;DHT22;11653;50.848;4.584;2022-11-20T06:58:14;6.60;99.90
22974;DHT22;11653;50.848;4.584;2022-11-20T07:00:40;6.60;99.90
22974;DHT22;11653;50.848;4.584;2022-11-20T07:03:07;6.70;99.90
22974;DHT22;11653;50.848;4.584;2022-11-20T07:05:34;6.70;99.90
22974;DHT22;11653;50.848;4.584;2022-11-20T07:08:00;6.80;99.90
22974;DHT22;11653;50.848;4.584;2022-11-20T07:10:26;6.80;99.90
22974;DHT22;11653;50.848;4.584;2022-11-20T07:12:52;6.80;99.90
22974;DHT22;11653;50.848;4.584;2022-11-20T07:15:20;6.80;99.90
22974;DHT22;11653;50.848;4.584;2022-11-20T07:17:46;6.80;99.90
22974;DHT22;11653;50.848;4.584;2022-11-20T07:20:12;6.70;99.90
22974;DHT22;11653;50.848;4.584;2022-11-20T07:22:38;6.80;99.90
22974;DHT22;11653;50.848;4.584;2022-11-20T07:25:04;6.80;99.90
22974;DHT22;11653;50.848;4.584;2022-11-20T07:27:30;6.80;99.90
22974;DHT22;11653;50.848;4.584;2022-11-20T07:29:56;6.80;99.90
22974;DHT22;11653;50.848;4.584;2022-11-20T07:32:22;6.90;99.90
22974;DHT22;11653;50.848;4.584;2022-11-20T07:34:48;6.90;99.90
22974;DHT22;11653;50.848;4.584;2022-11-20T07:37:15;6.90;99.90
22974;DHT22;11653;50.848;4.584;2022-11-20T07:39:41;6.80;99.90
22974;DHT22;11653;50.848;4.584;2022-11-20T07:42:07;6.90;99.90
22974;DHT22;11653;50.848;4.584;2022-11-20T07:44:34;6.90;99.90
22974;DHT22;11653;50.848;4.584;2022-11-20T07:46:59;7.00;99.90
22974;DHT22;11653;50.848;4.584;2022-11-20T07:49:25;7.00;99.90
22974;DHT22;11653;50.848;4.584;2022-11-20T07:51:51;7.10;99.90
22974;DHT22;11653;50.848;4.584;2022-11-20T07:54:19;7.20;99.90
22974;DHT22;11653;50.848;4.584;2022-11-20T07:56:45;7.40;99.90
22974;DHT22;11653;50.848;4.584;2022-11-20T07:59:11;7.40;99.90
22974;DHT22;11653;50.848;4.584;2022-11-20T08:01:38;7.40;99.90
22974;DHT22;11653;50.848;4.584;2022-11-20T08:04:03;7.40;99.90
22974;DHT22;11653;50.848;4.584;2022-11-20T08:06:29;7.40;99.90
22974;DHT22;11653;50.848;4.584;2022-11-20T08:08:54;7.40;99.90
22974;DHT22;11653;50.848;4.584;2022-11-20T08:11:20;7.40;99.90
22974;DHT22;11653;50.848;4.584;2022-11-20T08:14:04;7.40;99.90
22974;DHT22;11653;50.848;4.584;2022-11-20T08:16:46;7.40;99.90
22974;DHT22;11653;50.848;4.584;2022-11-20T08:19:13;7.50;99.90
22974;DHT22;11653;50.848;4.584;2022-11-20T08:21:39;7.40;99.90
22974;DHT22;11653;50.848;4.584;2022-11-20T08:24:06;7.40;99.90
22974;DHT22;11653;50.848;4.584;2022-11-20T08:26:32;7.40;99.90
22974;DHT22;11653;50.848;4.584;2022-11-20T08:28:58;7.40;99.90
22974;DHT22;11653;50.848;4.584;2022-11-20T08:31:25;7.50;99.90
22974;DHT22;11653;50.848;4.584;2022-11-20T08:33:52;7.40;99.90
22974;DHT22;11653;50.848;4.584;2022-11-20T08:36:18;7.40;99.90
22974;DHT22;11653;50.848;4.584;2022-11-20T08:38:52;7.50;99.90
22974;DHT22;11653;50.848;4.584;2022-11-20T08:41:18;7.60;99.90
22974;DHT22;11653;50.848;4.584;2022-11-20T08:44:04;7.60;99.90
22974;DHT22;11653;50.848;4.584;2022-11-20T08:46:41;7.70;99.90
22974;DHT22;11653;50.848;4.584;2022-11-20T08:49:11;7.90;99.90
22974;DHT22;11653;50.848;4.584;2022-11-20T08:51:37;7.70;99.90
22974;DHT22;11653;50.848;4.584;2022-11-20T08:54:04;7.70;99.90
22974;DHT22;11653;50.848;4.584;2022-11-20T08:56:30;7.70;99.90
22974;DHT22;11653;50.848;4.584;2022-11-20T08:58:57;7.80;99.90
22974;DHT22;11653;50.848;4.584;2022-11-20T09:01:25;7.90;99.90
22974;DHT22;11653;50.848;4.584;2022-11-20T09:03:51;8.00;99.90
22974;DHT22;11653;50.848;4.584;2022-11-20T09:06:17;8.00;99.90
22974;DHT22;11653;50.848;4.584;2022-11-20T09:08:43;8.00;99.90
22974;DHT22;11653;50.848;4.584;2022-11-20T09:11:08;8.00;99.90
22974;DHT22;11653;50.848;4.584;2022-11-20T09:13:35;8.10;99.90
22974;DHT22;11653;50.848;4.584;2022-11-20T09:16:10;8.20;99.90
22974;DHT22;11653;50.848;4.584;2022-11-20T09:18:36;8.00;99.90
22974;DHT22;11653;50.848;4.584;2022-11-20T09:21:08;8.10;99.90
22974;DHT22;11653;50.848;4.584;2022-11-20T09:23:36;8.10;99.90
22974;DHT22;11653;50.848;4.584;2022-11-20T09:26:07;8.20;99.90
22974;DHT22;11653;50.848;4.584;2022-11-20T09:28:34;8.30;99.90
22974;DHT22;11653;50.848;4.584;2022-11-20T09:30:59;8.40;99.90
22974;DHT22;11653;50.848;4.584;2022-11-20T09:33:25;8.50;99.90
22974;DHT22;11653;50.848;4.584;2022-11-20T09:35:51;8.60;99.90
22974;DHT22;11653;50.848;4.584;2022-11-20T09:38:16;8.50;99.90
22974;DHT22;11653;50.848;4.584;2022-11-20T09:40:53;8.40;99.90
22974;DHT22;11653;50.848;4.584;2022-11-20T09:46:38;8.60;99.90
22974;DHT22;11653;50.848;4.584;2022-11-20T09:49:18;8.70;99.90
22974;DHT22;11653;50.848;4.584;2022-11-20T09:52:00;8.80;99.90
22974;DHT22;11653;50.848;4.584;2022-11-20T09:54:39;8.80;99.90
22974;DHT22;11653;50.848;4.584;2022-11-20T09:57:11;8.90;99.90
22974;DHT22;11653;50.848;4.584;2022-11-20T09:59:48;9.00;99.90
22974;DHT22;11653;50.848;4.584;2022-11-20T10:02:40;9.00;99.90
22974;DHT22;11653;50.848;4.584;2022-11-20T10:11:04;9.20;99.90
22974;DHT22;11653;50.848;4.584;2022-11-20T10:16:41;9.50;99.90
22974;DHT22;11653;50.848;4.584;2022-11-20T10:19:37;9.70;99.90
22974;DHT22;11653;50.848;4.584;2022-11-20T10:25:05;9.90;99.90
22974;DHT22;11653;50.848;4.584;2022-11-20T10:30:15;10.10;99.90
22974;DHT22;11653;50.848;4.584;2022-11-20T10:36:01;10.20;99.90
22974;DHT22;11653;50.848;4.584;2022-11-20T10:38:36;10.40;99.90
22974;DHT22;11653;50.848;4.584;2022-11-20T10:41:03;10.50;99.90
22974;DHT22;11653;50.848;4.584;2022-11-20T10:43:53;10.40;99.90
22974;DHT22;11653;50.848;4.584;2022-11-20T10:46:21;10.50;99.90
22974;DHT22;11653;50.848;4.584;2022-11-20T10:48:50;10.60;99.90
22974;DHT22;11653;50.848;4.584;2022-11-20T10:54:10;10.80;99.90
22974;DHT22;11653;50.848;4.584;2022-11-20T10:56:41;11.00;99.90
22974;DHT22;11653;50.848;4.584;2022-11-20T11:01:55;11.20;99.90
22974;DHT22;11653;50.848;4.584;2022-11-20T11:04:37;11.40;99.90
22974;DHT22;11653;50.848;4.584;2022-11-20T11:07:13;11.70;99.90
22974;DHT22;11653;50.848;4.584;2022-11-20T11:09:44;11.80;99.90
22974;DHT22;11653;50.848;4.584;2022-11-20T11:12:12;11.90;99.90
22974;DHT22;11653;50.848;4.584;2022-11-20T11:14:49;12.20;99.90
22974;DHT22;11653;50.848;4.584;2022-11-20T11:17:22;12.30;99.90
22974;DHT22;11653;50.848;4.584;2022-11-20T11:22:50;12.50;99.90
22974;DHT22;11653;50.848;4.584;2022-11-20T11:27:50;12.60;99.90
22974;DHT22;11653;50.848;4.584;2022-11-20T11:30:18;12.50;99.90
22974;DHT22;11653;50.848;4.584;2022-11-20T11:32:45;12.40;99.90
22974;DHT22;11653;50.848;4.584;2022-11-20T11:35:27;12.30;99.90
22974;DHT22;11653;50.848;4.584;2022-11-20T11:38:01;12.20;99.90
22974;DHT22;11653;50.848;4.584;2022-11-20T11:40:30;12.20;99.90
22974;DHT22;11653;50.848;4.584;2022-11-20T11:43:00;12.10;99.90
22974;DHT22;11653;50.848;4.584;2022-11-20T11:45:27;12.00;99.90
22974;DHT22;11653;50.848;4.584;2022-11-20T11:47:54;11.90;99.90
22974;DHT22;11653;50.848;4.584;2022-11-20T11:50:23;11.90;99.90
22974;DHT22;11653;50.848;4.584;2022-11-20T11:53:04;12.00;99.90
22974;DHT22;11653;50.848;4.584;2022-11-20T11:55:58;12.00;99.90
22974;DHT22;11653;50.848;4.584;2022-11-20T12:01:32;11.90;99.90
22974;DHT22;11653;50.848;4.584;2022-11-20T12:06:53;11.80;99.90
22974;DHT22;11653;50.848;4.584;2022-11-20T12:09:24;11.60;99.90
22974;DHT22;11653;50.848;4.584;2022-11-20T12:14:49;11.40;99.90
22974;DHT22;11653;50.848;4.584;2022-11-20T12:17:18;11.30;99.90
22974;DHT22;11653;50.848;4.584;2022-11-20T12:19:45;11.20;99.90
22974;DHT22;11653;50.848;4.584;2022-11-20T12:27:51;11.00;99.90
22974;DHT22;11653;50.848;4.584;2022-11-20T12:30:21;10.90;99.90
22974;DHT22;11653;50.848;4.584;2022-11-20T12:35:59;10.80;99.90
22974;DHT22;11653;50.848;4.584;2022-11-20T12:42:05;10.70;99.90
22974;DHT22;11653;50.848;4.584;2022-11-20T12:45:06;10.50;99.90
22974;DHT22;11653;50.848;4.584;2022-11-20T12:56:57;10.30;99.90
22974;DHT22;11653;50.848;4.584;2022-11-20T13:02:37;9.90;99.90
22974;DHT22;11653;50.848;4.584;2022-11-20T13:05:16;9.80;99.90
22974;DHT22;11653;50.848;4.584;2022-11-20T13:07:45;9.60;99.90
22974;DHT22;11653;50.848;4.584;2022-11-20T13:10:31;9.50;99.90
22974;DHT22;11653;50.848;4.584;2022-11-20T13:13:13;9.40;99.90
22974;DHT22;11653;50.848;4.584;2022-11-20T13:16:02;9.50;99.90
22974;DHT22;11653;50.848;4.584;2022-11-20T13:18:36;9.80;99.90
22974;DHT22;11653;50.848;4.584;2022-11-20T13:21:17;9.80;99.90
22974;DHT22;11653;50.848;4.584;2022-11-20T13:23:43;9.80;99.90
22974;DHT22;11653;50.848;4.584;2022-11-20T13:26:21;10.00;99.90
22974;DHT22;11653;50.848;4.584;2022-11-20T13:28:59;10.00;99.90
22974;DHT22;11653;50.848;4.584;2022-11-20T13:31:33;10.00;99.90
22974;DHT22;11653;50.848;4.584;2022-11-20T13:34:03;10.00;99.90
22974;DHT22;11653;50.848;4.584;2022-11-20T13:36:30;9.90;99.90
22974;DHT22;11653;50.848;4.584;2022-11-20T13:38:58;9.80;99.90
22974;DHT22;11653;50.848;4.584;2022-11-20T13:41:36;9.80;99.90
22974;DHT22;11653;50.848;4.584;2022-11-20T13:46:37;9.50;99.90
22974;DHT22;11653;50.848;4.584;2022-11-20T13:49:09;9.40;99.90
22974;DHT22;11653;50.848;4.584;2022-11-20T14:02:43;9.40;99.90
22974;DHT22;11653;50.848;4.584;2022-11-20T14:05:39;9.40;99.90
22974;DHT22;11653;50.848;4.584;2022-11-20T14:08:13;9.50;99.90
22974;DHT22;11653;50.848;4.584;2022-11-20T14:10:39;9.50;99.90
22974;DHT22;11653;50.848;4.584;2022-11-20T14:13:17;9.60;99.90
22974;DHT22;11653;50.848;4.584;2022-11-20T14:15:43;9.60;99.90
22974;DHT22;11653;50.848;4.584;2022-11-20T14:18:20;9.70;99.90
22974;DHT22;11653;50.848;4.584;2022-11-20T14:20:45;9.70;99.90
22974;DHT22;11653;50.848;4.584;2022-11-20T14:23:11;9.80;99.90
22974;DHT22;11653;50.848;4.584;2022-11-20T14:25:42;9.90;99.90
22974;DHT22;11653;50.848;4.584;2022-11-20T14:28:20;9.90;99.90
22974;DHT22;11653;50.848;4.584;2022-11-20T14:30:48;9.80;99.90
22974;DHT22;11653;50.848;4.584;2022-11-20T14:33:15;9.90;99.90
22974;DHT22;11653;50.848;4.584;2022-11-20T14:35:49;10.00;99.90
22974;DHT22;11653;50.848;4.584;2022-11-20T14:38:18;10.00;99.90
22974;DHT22;11653;50.848;4.584;2022-11-20T14:40:45;10.00;99.90
22974;DHT22;11653;50.848;4.584;2022-11-20T14:45:43;9.90;99.90
22974;DHT22;11653;50.848;4.584;2022-11-20T14:48:09;9.90;99.90
22974;DHT22;11653;50.848;4.584;2022-11-20T14:50:38;9.90;99.90
22974;DHT22;11653;50.848;4.584;2022-11-20T14:53:04;10.00;99.90
22974;DHT22;11653;50.848;4.584;2022-11-20T14:55:34;10.00;99.90
22974;DHT22;11653;50.848;4.584;2022-11-20T14:58:03;10.00;99.90
22974;DHT22;11653;50.848;4.584;2022-11-20T15:00:31;10.10;99.90
22974;DHT22;11653;50.848;4.584;2022-11-20T15:02:57;10.00;99.90
22974;DHT22;11653;50.848;4.584;2022-11-20T15:05:26;10.00;99.90
22974;DHT22;11653;50.848;4.584;2022-11-20T15:08:08;10.00;99.90
22974;DHT22;11653;50.848;4.584;2022-11-20T15:10:34;10.00;99.90
22974;DHT22;11653;50.848;4.584;2022-11-20T15:13:03;9.90;99.90
22974;DHT22;11653;50.848;4.584;2022-11-20T15:15:50;9.80;99.90
22974;DHT22;11653;50.848;4.584;2022-11-20T15:18:18;9.80;99.90
22974;DHT22;11653;50.848;4.584;2022-11-20T15:20:45;9.80;99.90
22974;DHT22;11653;50.848;4.584;2022-11-20T15:23:13;9.70;99.90
22974;DHT22;11653;50.848;4.584;2022-11-20T15:25:40;9.70;99.90
22974;DHT22;11653;50.848;4.584;2022-11-20T15:28:21;9.60;99.90
22974;DHT22;11653;50.848;4.584;2022-11-20T15:30:48;9.60;99.90
22974;DHT22;11653;50.848;4.584;2022-11-20T15:33:15;9.50;99.90
22974;DHT22;11653;50.848;4.584;2022-11-20T15:35:41;9.40;99.90
22974;DHT22;11653;50.848;4.584;2022-11-20T15:38:07;9.40;99.90
22974;DHT22;11653;50.848;4.584;2022-11-20T15:40:33;9.50;99.90
22974;DHT22;11653;50.848;4.584;2022-11-20T15:42:58;9.50;99.90
22974;DHT22;11653;50.848;4.584;2022-11-20T15:45:44;9.60;99.90
22974;DHT22;11653;50.848;4.584;2022-11-20T15:48:22;9.50;99.90
22974;DHT22;11653;50.848;4.584;2022-11-20T15:51:06;9.50;99.90
22974;DHT22;11653;50.848;4.584;2022-11-20T15:53:47;9.50;99.90
22974;DHT22;11653;50.848;4.584;2022-11-20T15:56:14;9.60;99.90
22974;DHT22;11653;50.848;4.584;2022-11-20T15:58:40;9.60;99.90
22974;DHT22;11653;50.848;4.584;2022-11-20T16:01:12;9.70;99.90
22974;DHT22;11653;50.848;4.584;2022-11-20T16:03:38;9.70;99.90
22974;DHT22;11653;50.848;4.584;2022-11-20T16:06:04;9.60;99.90
22974;DHT22;11653;50.848;4.584;2022-11-20T16:08:30;9.60;99.90
22974;DHT22;11653;50.848;4.584;2022-11-20T16:10:56;9.60;99.90
22974;DHT22;11653;50.848;4.584;2022-11-20T16:13:21;9.60;99.90
22974;DHT22;11653;50.848;4.584;2022-11-20T16:16:07;9.60;99.90
22974;DHT22;11653;50.848;4.584;2022-11-20T16:18:37;9.60;99.90
22974;DHT22;11653;50.848;4.584;2022-11-20T16:21:03;9.60;99.90
22974;DHT22;11653;50.848;4.584;2022-11-20T16:23:28;9.60;99.90
22974;DHT22;11653;50.848;4.584;2022-11-20T16:25:54;9.70;99.90
22974;DHT22;11653;50.848;4.584;2022-11-20T16:28:19;9.60;99.90
22974;DHT22;11653;50.848;4.584;2022-11-20T16:30:46;9.70;99.90
22974;DHT22;11653;50.848;4.584;2022-11-20T16:33:13;9.70;99.90
22974;DHT22;11653;50.848;4.584;2022-11-20T16:35:39;9.70;99.90
22974;DHT22;11653;50.848;4.584;2022-11-20T16:38:05;9.70;99.90
22974;DHT22;11653;50.848;4.584;2022-11-20T16:40:31;9.60;99.90
22974;DHT22;11653;50.848;4.584;2022-11-20T16:42:57;9.60;99.90
22974;DHT22;11653;50.848;4.584;2022-11-20T16:45:23;9.60;99.90
22974;DHT22;11653;50.848;4.584;2022-11-20T16:47:49;9.70;99.90
22974;DHT22;11653;50.848;4.584;2022-11-20T16:50:15;9.70;99.90
22974;DHT22;11653;50.848;4.584;2022-11-20T16:52:40;9.70;99.90
22974;DHT22;11653;50.848;4.584;2022-11-20T16:55:06;9.70;99.90
22974;DHT22;11653;50.848;4.584;2022-11-20T16:57:32;9.70;99.90
22974;DHT22;11653;50.848;4.584;2022-11-20T16:59:59;9.80;99.90
22974;DHT22;11653;50.848;4.584;2022-11-20T17:02:25;9.70;99.90
22974;DHT22;11653;50.848;4.584;2022-11-20T17:04:51;9.80;99.90
22974;DHT22;11653;50.848;4.584;2022-11-20T17:07:17;9.80;99.90
22974;DHT22;11653;50.848;4.584;2022-11-20T17:09:43;9.70;99.90
22974;DHT22;11653;50.848;4.584;2022-11-20T17:12:10;9.60;99.90
22974;DHT22;11653;50.848;4.584;2022-11-20T17:14:36;9.60;99.90
22974;DHT22;11653;50.848;4.584;2022-11-20T17:17:02;9.50;99.90
22974;DHT22;11653;50.848;4.584;2022-11-20T17:19:28;9.40;99.90
22974;DHT22;11653;50.848;4.584;2022-11-20T17:21:53;9.30;99.90